Terminal Aerodrome Forecast
Issued by NWS Lake Charles, LA

Home | Current Version | Previous Version | Text Only | Print | Product List | Glossary On
Versions: 1 2 3 4 5 6 7 8 9 10 11 12 13 14 15 16 17 18 19 20
000
FTUS44 KLCH 260500
TAFARA
TAF
KARA 260520Z 2606/2706 14007KT P6SM SCT040 BKN250
     FM260900 13007KT P6SM BKN040
     FM261800 14010KT P6SM VCSH BKN025
     FM270000 11009KT 4SM BR VCSH OVC007=

USA.gov is the U.S. government's official web portal to all federal, state and local government web resources and services.